Etusivu
METAR-TAF:

METAR-TAF

Lentoasemat :

Payerne, Sveitsi

Leveyspiiri: 46-49N, Pituuspiiri: 006-57E, korkeus merenpinnasta: 490 m

Tämänhetkinen sää

Tämä raportti tehtiin 22 minuuttia sitten, kello 08.50 UTC
Tuuli 4 kn koillisesta, vaihdellen pohjoisen/luoteen ja idän välillä
Lämpötila 19°C
Kosteus 56%
Ilmanpaine 1022 hPa
Näkyvyys 10 km tai enemmän

METAR: LSMP 130850Z AUTO 04004KT 330V100 9999NDV NCD 19/10 Q1022 RMK

Aika: 11:12 (09:12 UTC)


TAF: puuttuu

Säähavainnot ja -ennusteet yli 4000 lentoasemalta (METAR- ja TAF-raportit).

Käytössä olevat sääasemat on merkitty karttaan keltaisilla ja punaisilla pisteillä.

Aseta hiiri pisteen päälle nähdäksesi sääaseman nimen.

Klikkaa sitten nähdäksesi säähavainnot ja -ennusteet.

Kartan vaihtaminen: klikkaa mustalla rastilla varustettuja vihreitä pisteitä, niin voit zoomata sisään; viivalla varustettua vihreää pistettä, niin voit zoomata ulos tai vihreitä nuolia, niin pääset viereisille kartoille.


METAR-TAF: